Pagrindinis puslapis
METAR-TAF:

METAR-TAF

Oro uostai :

Ilam, Iranas

platuma: 33-35-09N, ilguma: 046-24-20E, Aukštis: 1334 m

Dabartinis oras

Ataskaita buvo paskelbta 33 minutes, ne 13:00 UTC
Vėjas 4 kt iš Vakarų/Šiaurės Vakarų
Temperatūra 16°C
Drėgmė 59%
Slėgis 1019 hPa
Matomumas 10 km arba daugiau
nėra debesų žemiau 1500 m ir nėra kamuolinių lietaus debesų

METAR: OICI 281300Z 29004KT CAVOK 16/08 Q1018 A3009

Laikas: 17:03 (13:33 UTC)

Prognozė

Ataskaita buvo paskelbta 1 valandą ir 43 minutes, ne 11:50 UTC
Prognozė galioja nuo 28 metu 12 UTC su 29 metu 18 UTC
Vėjas 8 kt iš Rytų
Matomumas: 7000 m
Laikinai
nuo 28 metu 13 UTC su 28 metu 17 UTC
Mažai debesys ne aukštis 3500 ft, aukštai iškilę kamuoliniai debesys.
Išsisklaidę debesys ne aukštis 4000 ft
Išsisklaidę debesys ne aukštis 10000 ft

TAF: OICI 281150Z 2812/2918 10008KT 7000 NSC TEMPO 2813/2817 FEW035TCU SCT040 SCT100

Orai ataskaitas ir orų prognozės (METAR, TAF).

turimą stotys yra geltonos ir raudonos taškus žemėlapyje.

Perkelti pele per norėdami pamatyti stoties vardą.

Tada spustelėkite, norėdami matyti oro stebėjimo ir prognozės.

Norėdami pakeisti žemėlapį: spustelėkite ant žalios mygtukų su juodo kryžiaus žemyn,; žalią mygtuką su brūkšneliu, jei norite nutolinti; arba žalių rodyklių gretimoms žemėlapius.


METAR-TAF: